Decoded Metar for GMME (RABAT in MOROCCO) (IATA:RBA) | Meteo·Mobile Aviation Weather
aviador You're here:

GMME Decoded Metar

RABAT in MOROCCO
Report Time2018-11-19 04:30:00
UTC Time2018-11-19 05:00:55
Flight Rules vfr VFR
Wind210° at 12 kt
W.Decomp.*RWY 21: 12.0 kt HW 0.4 kt RCW
W.Rank210° ranks 9
Current wind is above 210° avg. (6.3)
Visibility8000 m
Phenomena:Light Rain
Clouds:Few 012 Hf
Scattered 026 Hf
Broken 080 Hf
Expected CloudBase > 1,200 ft AGL from Temp-Dew spread
Ceiling8,000 ft
Temp12°C (ISA -3)
Dew Point09°C (82% RH)
AAT7.5°C
QNH1005 hPa
Density Alt374 ft
Elevation246 ft
Report Wrong Elevation
Raw Report
METAR GMME 190430Z 21012KT 8000 -RA FEW012 SCT026 BKN080 12/09 Q1005
NOSIG=

Extra information for GMME:More info

Metar Taf Metar & Taf Last 4 Metars F.Rules Stats Wind Profile Meteogram Temp Stats Airport Information Weather charts Add Link Nearby VenuesMetar ALERT Operation Metar Decoded Social comments